Time;durP1;ratioP1;P1;durP2;ratioP2;P2;SDS_P1;SDS_P2;PMS_P1;PMS_P2;Temp;Humidity;BMP_temperature;BMP_pressure;BME280_temperature;BME280_humidity;BME280_pressure;Samples;Min_cycle;Max_cycle;Signal;HPM_P1;HPM_P2
2021/12/10 00:02:10;;;;;;;38.95;22.17;;;5.20;90.80;;;;;;5030087;28;20486;-65
2021/12/10 00:04:38;;;;;;;34.25;20.23;;;5.20;90.80;;;;;;5049921;28;20083;-64
2021/12/10 00:07:13;;;;;;;39.53;21.67;;;5.20;90.80;;;;;;5048900;28;20056;-64
2021/12/10 00:09:47;;;;;;;34.42;19.73;;;5.20;90.70;;;;;;5046221;28;20538;-63
2021/12/10 00:12:23;;;;;;;45.92;22.15;;;5.40;91.50;;;;;;5050877;28;20041;-64
2021/12/10 00:14:50;;;;;;;39.75;20.35;;;5.70;91.30;;;;;;5049901;28;20041;-63
2021/12/10 00:17:17;;;;;;;33.70;18.50;;;5.70;90.60;;;;;;5049589;28;20036;-63
2021/12/10 00:19:49;;;;;;;31.75;17.77;;;5.70;90.00;;;;;;5046766;28;20067;-63
2021/12/10 00:22:24;;;;;;;28.20;16.27;;;5.70;89.80;;;;;;5047568;28;20049;-63
2021/12/10 00:24:51;;;;;;;37.30;18.02;;;5.60;89.70;;;;;;5041569;28;20072;-63
2021/12/10 00:27:27;;;;;;;29.92;18.52;;;5.60;89.60;;;;;;5048440;28;20501;-64
2021/12/10 00:29:53;;;;;;;34.22;18.15;;;5.60;89.70;;;;;;5049635;28;20049;-63
2021/12/10 00:32:34;;;;;;;31.67;18.10;;;5.50;89.70;;;;;;5049943;28;20041;-63
2021/12/10 00:35:03;;;;;;;29.73;18.13;;;5.50;89.70;;;;;;5041583;28;20095;-64
2021/12/10 00:37:29;;;;;;;35.30;16.35;;;5.50;89.60;;;;;;5039144;28;20535;-63
2021/12/10 00:39:59;;;;;;;36.22;17.52;;;5.50;89.70;;;;;;5039789;28;20632;-63
2021/12/10 00:42:28;;;;;;;26.63;16.75;;;5.50;89.70;;;;;;5037762;28;20037;-63
2021/12/10 00:44:56;;;;;;;34.85;15.90;;;5.50;89.50;;;;;;5042160;28;20106;-63
2021/12/10 00:47:22;;;;;;;31.92;16.00;;;5.50;89.50;;;;;;5049635;28;20123;-63
2021/12/10 00:49:48;;;;;;;28.25;15.65;;;5.50;89.50;;;;;;5048667;28;20095;-63
2021/12/10 00:52:15;;;;;;;26.33;14.57;;;5.40;89.50;;;;;;5050481;28;20060;-63
2021/12/10 00:54:41;;;;;;;39.55;17.60;;;5.50;89.40;;;;;;5049307;28;20041;-63
2021/12/10 00:57:08;;;;;;;34.15;15.27;;;5.40;89.50;;;;;;5049724;28;20529;-63
2021/12/10 00:59:35;;;;;;;26.83;15.48;;;5.40;89.50;;;;;;5049461;28;20041;-63
2021/12/10 01:02:03;;;;;;;25.17;15.57;;;5.40;89.50;;;;;;5049010;28;20041;-63
2021/12/10 01:04:33;;;;;;;28.73;16.67;;;5.40;89.60;;;;;;5046436;28;20409;-63
2021/12/10 01:07:05;;;;;;;25.65;14.95;;;5.40;89.60;;;;;;5047531;28;20094;-63
2021/12/10 01:09:35;;;;;;;30.73;16.45;;;5.50;89.60;;;;;;5048708;28;20033;-63
2021/12/10 01:12:10;;;;;;;34.92;18.80;;;5.40;89.60;;;;;;5049344;28;20088;-63
2021/12/10 01:26:07;;;;;;;40.63;17.45;;;5.30;89.90;;;;;;5049191;28;20049;-63
2021/12/10 01:28:33;;;;;;;27.35;16.25;;;5.30;89.90;;;;;;5045270;28;20044;-63
2021/12/10 01:30:59;;;;;;;29.27;18.55;;;5.20;90.00;;;;;;5048533;28;20037;-63
2021/12/10 01:33:25;;;;;;;29.80;16.02;;;5.20;90.10;;;;;;5042291;28;20091;-64
2021/12/10 01:35:54;;;;;;;30.75;17.75;;;5.20;90.20;;;;;;5045042;28;20044;-63
2021/12/10 01:38:21;;;;;;;26.25;16.77;;;5.10;90.30;;;;;;5063771;28;20630;-63
2021/12/10 01:40:52;;;;;;;31.63;17.08;;;5.20;90.30;;;;;;5047424;28;20051;-63
2021/12/10 01:43:24;;;;;;;29.20;16.65;;;5.20;90.40;;;;;;5049572;28;20044;-63
2021/12/10 01:45:51;;;;;;;;;;;5.20;90.30;;;;;;5048741;28;20064;-63
2021/12/10 01:48:31;;;;;;;30.50;15.57;;;5.10;90.30;;;;;;5048976;28;19920;-63
2021/12/10 01:50:59;;;;;;;30.13;15.90;;;5.10;90.70;;;;;;5048587;28;20081;-63
2021/12/10 01:53:28;;;;;;;27.10;15.25;;;5.10;90.60;;;;;;5048323;28;20563;-63
2021/12/10 01:55:57;;;;;;;26.95;14.75;;;5.10;90.50;;;;;;5047831;28;20528;-63
2021/12/10 01:58:26;;;;;;;26.60;13.43;;;5.10;90.60;;;;;;5048862;28;20045;-63
2021/12/10 02:01:00;;;;;;;26.30;13.70;;;5.10;90.60;;;;;;5048268;28;20451;-63
2021/12/10 02:03:27;;;;;;;25.75;13.25;;;5.10;90.40;;;;;;5047717;28;20128;-63
2021/12/10 02:05:53;;;;;;;22.30;12.02;;;5.10;90.50;;;;;;5047257;28;20037;-63
2021/12/10 02:08:19;;;;;;;23.95;12.70;;;5.20;90.40;;;;;;5049226;28;20041;-63
2021/12/10 02:10:45;;;;;;;25.33;12.90;;;5.20;90.30;;;;;;5048260;28;20475;-63
2021/12/10 02:13:11;;;;;;;28.77;12.18;;;5.10;90.30;;;;;;5047808;28;20119;-63
2021/12/10 02:15:37;;;;;;;24.52;11.13;;;5.20;90.20;;;;;;5048410;28;20163;-63
2021/12/10 02:18:06;;;;;;;27.35;10.95;;;5.10;90.00;;;;;;5043900;28;20059;-63
2021/12/10 02:20:36;;;;;;;17.45;10.25;;;5.10;90.10;;;;;;5039977;28;20071;-63
2021/12/10 02:23:05;;;;;;;21.90;11.25;;;5.10;90.10;;;;;;5047905;28;20056;-63
2021/12/10 02:25:36;;;;;;;19.65;10.75;;;5.20;90.10;;;;;;5046576;28;20086;-63
2021/12/10 02:28:03;;;;;;;24.52;12.23;;;5.20;90.00;;;;;;5048391;28;20440;-64
2021/12/10 02:30:29;;;;;;;24.48;10.07;;;5.20;90.00;;;;;;5046400;28;20486;-64
2021/12/10 02:32:55;;;;;;;19.83;11.00;;;5.20;89.80;;;;;;5047307;28;20068;-63
2021/12/10 02:35:21;;;;;;;18.38;10.45;;;5.10;89.70;;;;;;5042134;28;20551;-63
2021/12/10 02:37:48;;;;;;;21.55;10.27;;;5.10;89.70;;;;;;5048373;28;20068;-63
2021/12/10 02:40:17;;;;;;;14.02;9.15;;;5.10;89.70;;;;;;5048113;28;20145;-63
2021/12/10 02:42:43;;;;;;;29.63;10.75;;;5.00;89.80;;;;;;5048316;28;20041;-63
2021/12/10 02:45:12;;;;;;;22.52;8.68;;;5.00;89.60;;;;;;5047396;28;20049;-63
2021/12/10 02:47:38;;;;;;;26.65;9.38;;;5.00;89.60;;;;;;5047519;28;20047;-63
2021/12/10 02:50:06;;;;;;;19.15;8.90;;;4.90;89.60;;;;;;5046783;28;20049;-63
2021/12/10 02:52:32;;;;;;;17.42;8.88;;;4.80;89.50;;;;;;5047560;28;20056;-63
2021/12/10 02:54:59;;;;;;;18.48;8.57;;;4.80;89.40;;;;;;5039241;28;20041;-63
2021/12/10 02:57:25;;;;;;;15.15;8.82;;;4.80;89.50;;;;;;5048163;28;20045;-63
2021/12/10 02:59:51;;;;;;;18.92;9.75;;;4.80;89.20;;;;;;5047758;28;20879;-63
2021/12/10 03:02:22;;;;;;;18.73;8.65;;;4.70;89.30;;;;;;5045203;28;20099;-63
2021/12/10 03:04:48;;;;;;;19.20;8.25;;;4.70;89.30;;;;;;5047493;28;20081;-63
2021/12/10 03:07:15;;;;;;;18.23;9.77;;;4.70;89.40;;;;;;5047967;28;20083;-63
2021/12/10 03:09:44;;;;;;;21.23;9.60;;;4.70;89.30;;;;;;5047710;28;20041;-63
2021/12/10 03:12:11;;;;;;;20.67;8.98;;;4.60;89.40;;;;;;5048486;28;20107;-64
2021/12/10 03:14:39;;;;;;;23.20;9.55;;;4.70;89.30;;;;;;5047287;28;20107;-63
2021/12/10 03:17:14;;;;;;;37.38;13.15;;;4.70;89.10;;;;;;5036194;28;20421;-64
2021/12/10 03:19:40;;;;;;;17.15;9.80;;;4.70;89.20;;;;;;5051393;28;20041;-63
2021/12/10 03:22:07;;;;;;;20.05;9.32;;;4.60;89.20;;;;;;5051545;28;20052;-63
2021/12/10 03:24:34;;;;;;;27.88;10.52;;;4.60;89.20;;;;;;5046741;28;20094;-63
2021/12/10 03:27:03;;;;;;;16.75;10.48;;;4.60;89.10;;;;;;5051824;28;20036;-63
2021/12/10 03:29:32;;;;;;;15.30;9.05;;;4.60;89.10;;;;;;5051601;28;20048;-63
2021/12/10 03:32:02;;;;;;;22.08;11.38;;;4.60;88.80;;;;;;5051152;28;20077;-63
2021/12/10 03:34:27;;;;;;;13.88;8.43;;;4.50;88.60;;;;;;5041306;28;20068;-63
2021/12/10 03:36:54;;;;;;;39.67;13.65;;;4.50;88.60;;;;;;5050955;28;20037;-63
2021/12/10 03:39:23;;;;;;;21.42;9.65;;;4.50;88.60;;;;;;5051375;28;20140;-63
2021/12/10 03:41:51;;;;;;;20.45;11.02;;;4.40;88.50;;;;;;5050662;28;20056;-63
2021/12/10 03:44:16;;;;;;;24.02;10.63;;;4.30;88.80;;;;;;5042929;28;20117;-63
2021/12/10 03:46:43;;;;;;;26.50;12.38;;;4.40;88.80;;;;;;5049640;28;20123;-63
2021/12/10 03:49:09;;;;;;;17.45;10.95;;;4.40;88.70;;;;;;5051069;28;20048;-63
2021/12/10 03:51:36;;;;;;;19.95;10.30;;;4.40;88.70;;;;;;5042123;28;20045;-63
2021/12/10 03:54:03;;;;;;;20.02;9.52;;;4.30;88.70;;;;;;5050242;28;20124;-63
2021/12/10 03:56:31;;;;;;;22.88;10.35;;;4.30;88.80;;;;;;5050015;28;20040;-63
2021/12/10 03:59:01;;;;;;;21.92;9.30;;;4.30;88.70;;;;;;5050383;28;20045;-64
2021/12/10 04:01:31;;;;;;;18.10;9.50;;;4.30;88.90;;;;;;5049529;28;20379;-63
2021/12/10 04:04:01;;;;;;;17.23;9.55;;;4.20;88.60;;;;;;5046591;28;20025;-63
2021/12/10 04:06:27;;;;;;;21.42;9.68;;;4.20;88.70;;;;;;5050924;28;20041;-63
2021/12/10 04:08:54;;;;;;;16.35;10.43;;;4.20;88.60;;;;;;5050402;28;20068;-63
2021/12/10 04:11:21;;;;;;;14.23;8.88;;;4.20;88.50;;;;;;5050041;28;20636;-63
2021/12/10 04:13:48;;;;;;;16.38;9.40;;;4.10;88.60;;;;;;5049375;28;20052;-63
2021/12/10 04:16:17;;;;;;;21.55;10.25;;;4.10;88.70;;;;;;5050425;28;20041;-63
2021/12/10 04:18:43;;;;;;;20.55;9.50;;;4.10;88.70;;;;;;5050981;28;20037;-63
2021/12/10 04:21:09;;;;;;;19.38;9.35;;;4.00;88.60;;;;;;5049928;28;20041;-63
2021/12/10 04:23:35;;;;;;;20.35;8.73;;;4.00;88.60;;;;;;5047618;28;20119;-63
2021/12/10 04:26:02;;;;;;;20.67;9.18;;;4.00;88.70;;;;;;5050602;28;20045;-63
2021/12/10 04:28:28;;;;;;;15.55;8.20;;;3.90;88.70;;;;;;5049971;28;20083;-63
2021/12/10 04:30:54;;;;;;;12.50;8.55;;;3.90;88.80;;;;;;5049083;28;20065;-63
2021/12/10 04:33:23;;;;;;;17.63;7.75;;;3.90;88.80;;;;;;5044289;28;20045;-63
2021/12/10 04:35:52;;;;;;;13.48;8.05;;;3.90;88.90;;;;;;5050359;28;20052;-63
2021/12/10 04:38:19;;;;;;;18.75;8.80;;;3.90;88.80;;;;;;5049914;28;20128;-63
2021/12/10 04:40:47;;;;;;;17.17;8.20;;;3.90;88.80;;;;;;5049148;28;20072;-64
2021/12/10 04:43:18;;;;;;;22.27;8.40;;;3.90;88.80;;;;;;5048401;28;20056;-64
2021/12/10 04:45:44;;;;;;;20.58;8.18;;;3.90;88.80;;;;;;5049946;28;20705;-64
2021/12/10 04:48:10;;;;;;;15.95;8.07;;;3.80;88.70;;;;;;5048658;28;20421;-63
2021/12/10 04:50:36;;;;;;;17.67;7.57;;;3.80;88.80;;;;;;5049322;28;20045;-64
2021/12/10 04:53:06;;;;;;;12.15;7.53;;;3.80;88.70;;;;;;5049891;28;20044;-63
2021/12/10 04:55:32;;;;;;;18.95;8.50;;;3.80;88.80;;;;;;5049900;28;20052;-64
2021/12/10 04:57:57;;;;;;;19.38;8.82;;;3.70;88.60;;;;;;5048507;28;20390;-63
2021/12/10 05:00:28;;;;;;;14.70;7.30;;;3.70;88.70;;;;;;5049182;28;20045;-63
2021/12/10 05:02:56;;;;;;;15.68;6.93;;;3.70;88.60;;;;;;5048640;28;20147;-63
2021/12/10 05:05:22;;;;;;;18.25;7.57;;;3.70;88.60;;;;;;5049701;28;20055;-63
2021/12/10 05:07:49;;;;;;;14.57;7.72;;;3.60;88.60;;;;;;5049314;28;20048;-63
2021/12/10 05:10:17;;;;;;;13.50;6.95;;;3.70;88.70;;;;;;5048870;28;20068;-63
2021/12/10 05:12:43;;;;;;;17.83;6.85;;;3.60;88.60;;;;;;5049019;28;20355;-63
2021/12/10 05:15:13;;;;;;;16.80;8.10;;;3.70;88.60;;;;;;5049546;28;20053;-63
2021/12/10 05:17:39;;;;;;;14.88;6.13;;;3.70;88.40;;;;;;5033008;28;20037;-63
2021/12/10 05:20:21;;;;;;;13.32;6.93;;;3.60;88.40;;;;;;5049456;28;20045;-63
2021/12/10 05:22:48;;;;;;;;;;;3.60;88.30;;;;;;5047361;28;20508;-63
2021/12/10 05:25:15;;;;;;;17.55;6.70;;;3.60;88.20;;;;;;5049434;28;20389;-63
2021/12/10 05:27:42;;;;;;;12.02;6.68;;;3.50;88.30;;;;;;5049139;28;20450;-63
2021/12/10 05:30:11;;;;;;;10.30;7.28;;;3.50;88.30;;;;;;5049309;28;20032;-63
2021/12/10 05:32:37;;;;;;;13.23;7.35;;;3.50;88.40;;;;;;5043225;28;20500;-63
2021/12/10 05:35:05;;;;;;;15.70;7.80;;;3.50;88.20;;;;;;5047785;28;20040;-63
2021/12/10 05:37:30;;;;;;;12.27;6.72;;;3.40;88.30;;;;;;5048950;28;20040;-63
2021/12/10 05:39:56;;;;;;;18.95;6.38;;;3.40;88.20;;;;;;5048424;28;20397;-63
2021/12/10 05:42:22;;;;;;;13.25;6.60;;;3.40;88.30;;;;;;5048548;28;20033;-63
2021/12/10 05:44:47;;;;;;;16.90;7.18;;;3.40;88.30;;;;;;5049222;28;20068;-63
2021/12/10 05:47:13;;;;;;;13.25;7.05;;;3.40;88.30;;;;;;5048786;28;20596;-63
2021/12/10 05:49:39;;;;;;;14.65;7.28;;;3.40;88.30;;;;;;5048584;28;20041;-63
2021/12/10 05:52:05;;;;;;;14.45;7.25;;;3.40;88.30;;;;;;5048816;28;20396;-63
2021/12/10 05:54:31;;;;;;;18.67;8.23;;;3.40;88.30;;;;;;5048637;28;20040;-63
2021/12/10 05:56:57;;;;;;;16.88;8.15;;;3.40;88.40;;;;;;5049076;28;20041;-64
2021/12/10 05:59:23;;;;;;;19.48;8.93;;;3.40;88.30;;;;;;5048171;28;20053;-63
2021/12/10 06:01:48;;;;;;;10.05;7.47;;;3.40;88.40;;;;;;5042435;28;20068;-64
2021/12/10 06:04:16;;;;;;;18.15;7.90;;;3.40;88.40;;;;;;5034641;28;20094;-63
2021/12/10 06:06:42;;;;;;;12.65;8.23;;;3.40;88.40;;;;;;5048871;28;20468;-63
2021/12/10 06:09:09;;;;;;;15.73;8.52;;;3.40;88.30;;;;;;5048663;28;20037;-63
2021/12/10 06:11:36;;;;;;;16.20;9.30;;;3.30;88.40;;;;;;5033889;28;20048;-63
2021/12/10 06:14:02;;;;;;;18.02;9.98;;;3.30;88.40;;;;;;5048094;28;20037;-62
2021/12/10 06:16:28;;;;;;;24.02;10.88;;;3.30;88.50;;;;;;5046645;28;20128;-63
2021/12/10 06:18:53;;;;;;;15.20;10.13;;;3.20;88.50;;;;;;5030937;28;20464;-63
2021/12/10 06:21:20;;;;;;;18.70;10.57;;;3.30;88.50;;;;;;5029795;28;20049;-63
2021/12/10 06:23:46;;;;;;;22.08;10.15;;;3.30;88.60;;;;;;5027220;28;20449;-63
2021/12/10 06:26:12;;;;;;;16.63;10.25;;;3.30;88.80;;;;;;5028824;28;20045;-63
2021/12/10 06:28:44;;;;;;;19.33;10.52;;;3.30;88.90;;;;;;5043644;28;20040;-63
2021/12/10 06:31:11;;;;;;;15.65;10.57;;;3.40;89.00;;;;;;5045680;28;20053;-63
2021/12/10 06:33:36;;;;;;;16.75;10.07;;;3.40;89.20;;;;;;5043189;28;20045;-63
2021/12/10 06:36:04;;;;;;;15.93;10.15;;;3.40;89.30;;;;;;5042970;28;20047;-63
2021/12/10 06:38:30;;;;;;;17.33;10.75;;;3.40;89.30;;;;;;5048526;28;20049;-63
2021/12/10 06:40:56;;;;;;;16.17;9.73;;;3.50;89.30;;;;;;5043980;28;20045;-63
2021/12/10 06:43:22;;;;;;;16.88;9.48;;;3.60;89.10;;;;;;5028130;28;20044;-63
2021/12/10 06:45:48;;;;;;;12.52;9.45;;;3.50;89.20;;;;;;5041154;28;20037;-63
2021/12/10 06:48:15;;;;;;;15.25;9.68;;;3.50;89.20;;;;;;5047832;28;20052;-64
2021/12/10 06:50:46;;;;;;;17.38;9.10;;;3.50;89.20;;;;;;5046025;28;20072;-63
2021/12/10 06:53:12;;;;;;;15.63;9.07;;;3.60;89.10;;;;;;5036788;28;20084;-63
2021/12/10 06:55:38;;;;;;;14.73;9.15;;;3.60;89.00;;;;;;5045287;28;20596;-63
2021/12/10 06:58:05;;;;;;;25.33;8.95;;;3.50;89.00;;;;;;5052468;28;20401;-63
2021/12/10 07:00:40;;;;;;;15.52;8.23;;;3.50;89.00;;;;;;5043392;28;20500;-63
2021/12/10 07:03:06;;;;;;;17.17;10.20;;;3.50;89.00;;;;;;5032629;28;20860;-63
2021/12/10 07:05:32;;;;;;;16.30;8.80;;;3.60;89.80;;;;;;5045722;28;20098;-63
2021/12/10 07:07:58;;;;;;;14.65;8.52;;;3.60;89.20;;;;;;5051921;28;20494;-63
2021/12/10 07:10:24;;;;;;;16.85;8.55;;;3.60;89.00;;;;;;5049657;28;20463;-63
2021/12/10 07:12:51;;;;;;;15.57;8.40;;;3.60;88.60;;;;;;5049071;28;20041;-64
2021/12/10 07:15:17;;;;;;;16.02;9.13;;;3.60;88.60;;;;;;5049899;28;20167;-63
2021/12/10 07:17:45;;;;;;;12.25;8.25;;;4.10;91.40;;;;;;5050640;28;20604;-63
2021/12/10 07:20:12;;;;;;;16.80;8.38;;;4.30;89.90;;;;;;5050474;28;20051;-63
2021/12/10 07:22:38;;;;;;;11.13;8.45;;;4.20;88.60;;;;;;5051095;28;20064;-63
2021/12/10 07:25:06;;;;;;;11.88;8.60;;;4.10;88.00;;;;;;5034198;28;20088;-63
2021/12/10 07:27:31;;;;;;;13.27;9.05;;;3.90;87.30;;;;;;5052168;28;20090;-63
2021/12/10 07:29:57;;;;;;;12.68;8.90;;;3.80;87.50;;;;;;5043444;28;20042;-64
2021/12/10 07:32:23;;;;;;;16.45;8.43;;;3.70;87.50;;;;;;5037934;28;20417;-63
2021/12/10 07:34:48;;;;;;;15.88;8.00;;;3.70;87.60;;;;;;5051351;28;20069;-63
2021/12/10 07:37:14;;;;;;;17.80;7.57;;;3.60;87.60;;;;;;5050424;28;20033;-62
2021/12/10 07:39:40;;;;;;;10.32;7.28;;;3.60;87.70;;;;;;5044767;28;20106;-62
2021/12/10 07:42:07;;;;;;;15.65;7.45;;;3.60;87.80;;;;;;5042732;28;20162;-62
2021/12/10 07:44:35;;;;;;;17.75;8.73;;;3.70;87.80;;;;;;5048559;28;20041;-61
2021/12/10 07:47:09;;;;;;;13.15;8.13;;;3.70;87.80;;;;;;5043459;28;20063;-61
2021/12/10 07:49:37;;;;;;;30.70;10.00;;;3.70;87.80;;;;;;5047679;28;20033;-62
2021/12/10 07:52:06;;;;;;;20.00;8.50;;;3.60;87.60;;;;;;5042326;28;20041;-62
2021/12/10 07:54:33;;;;;;;12.57;7.32;;;3.60;87.60;;;;;;5050484;28;20040;-61
2021/12/10 07:56:58;;;;;;;17.17;7.75;;;3.60;87.60;;;;;;5049683;28;20440;-61
2021/12/10 07:59:24;;;;;;;15.32;9.23;;;3.60;87.50;;;;;;5050385;28;20092;-61
2021/12/10 08:01:51;;;;;;;12.15;6.70;;;3.60;87.50;;;;;;5049816;28;20041;-61
2021/12/10 08:04:16;;;;;;;12.68;8.25;;;3.60;87.60;;;;;;5049376;28;20064;-61
2021/12/10 08:06:42;;;;;;;8.85;6.68;;;3.60;87.50;;;;;;5050103;28;20036;-61
2021/12/10 08:09:09;;;;;;;12.35;7.38;;;3.60;87.50;;;;;;5050653;28;20029;-60
2021/12/10 08:11:36;;;;;;;13.27;7.70;;;3.50;87.30;;;;;;5046214;28;20045;-60
2021/12/10 08:14:01;;;;;;;13.32;6.60;;;3.50;87.50;;;;;;5044371;28;20422;-61
2021/12/10 08:16:27;;;;;;;10.25;6.45;;;3.50;87.40;;;;;;5048921;28;20086;-61
2021/12/10 08:18:53;;;;;;;11.25;7.20;;;3.50;87.40;;;;;;5050423;28;20040;-61
2021/12/10 08:21:22;;;;;;;11.40;6.60;;;3.50;87.50;;;;;;5049760;28;20052;-62
2021/12/10 08:23:49;;;;;;;11.48;7.05;;;3.50;87.50;;;;;;5049583;28;20080;-62
2021/12/10 08:26:15;;;;;;;11.15;6.20;;;3.50;87.50;;;;;;5049163;28;20521;-62
2021/12/10 08:28:41;;;;;;;12.95;6.70;;;3.50;87.50;;;;;;5049089;28;20119;-64
2021/12/10 08:31:07;;;;;;;9.30;5.68;;;3.50;87.40;;;;;;5043627;28;20198;-62
2021/12/10 08:33:33;;;;;;;13.20;6.07;;;3.40;87.40;;;;;;5047304;28;20159;-62
2021/12/10 08:36:03;;;;;;;12.93;6.07;;;3.50;87.50;;;;;;5035422;28;20435;-62
2021/12/10 08:38:30;;;;;;;12.30;6.10;;;3.50;87.50;;;;;;5037385;28;20049;-62
2021/12/10 08:41:00;;;;;;;11.45;5.60;;;3.60;87.60;;;;;;5047990;28;20131;-62
2021/12/10 08:43:29;;;;;;;19.60;6.97;;;3.60;87.40;;;;;;5049235;28;20060;-62
2021/12/10 08:45:55;;;;;;;12.15;5.72;;;3.60;87.40;;;;;;5049519;28;20132;-62
2021/12/10 08:48:23;;;;;;;10.25;5.72;;;3.60;87.30;;;;;;5048382;28;20045;-62
2021/12/10 08:50:49;;;;;;;11.93;5.95;;;3.60;87.30;;;;;;5047756;28;20580;-62
2021/12/10 08:53:15;;;;;;;14.00;6.82;;;3.60;87.30;;;;;;5047980;28;20051;-62
2021/12/10 08:55:45;;;;;;;10.73;5.78;;;3.60;87.20;;;;;;5048531;28;20052;-62
2021/12/10 08:58:12;;;;;;;8.15;5.28;;;3.60;87.50;;;;;;5049036;28;20049;-62
2021/12/10 09:00:40;;;;;;;10.45;5.70;;;3.60;87.40;;;;;;5046769;28;20083;-62
2021/12/10 09:03:06;;;;;;;10.77;5.95;;;3.70;87.40;;;;;;5044595;28;20037;-62
2021/12/10 09:05:33;;;;;;;8.73;6.15;;;3.70;87.30;;;;;;5024525;28;20049;-62
2021/12/10 09:07:59;;;;;;;8.13;5.35;;;3.80;87.30;;;;;;5043277;28;20044;-62
2021/12/10 09:10:32;;;;;;;12.88;5.97;;;3.80;87.20;;;;;;5049395;28;20417;-62
2021/12/10 09:12:58;;;;;;;11.10;5.43;;;3.90;87.20;;;;;;5041254;28;20041;-63
2021/12/10 09:15:26;;;;;;;12.98;5.50;;;3.80;87.10;;;;;;5042573;28;20045;-62
2021/12/10 09:17:53;;;;;;;10.23;6.93;;;3.90;87.10;;;;;;5045680;28;20053;-64
2021/12/10 09:20:27;;;;;;;9.38;5.47;;;3.90;87.00;;;;;;5048322;28;20053;-63
2021/12/10 09:22:54;;;;;;;10.98;5.68;;;3.90;87.20;;;;;;5046508;28;20040;-63
2021/12/10 09:25:20;;;;;;;10.70;6.47;;;3.90;86.80;;;;;;5048979;28;20037;-63
2021/12/10 09:27:46;;;;;;;10.43;5.10;;;3.90;86.90;;;;;;5033327;28;20041;-63
2021/12/10 09:30:14;;;;;;;12.38;5.53;;;3.90;86.90;;;;;;5048320;28;20138;-62
2021/12/10 09:32:40;;;;;;;11.57;5.75;;;3.90;87.00;;;;;;5048836;28;20052;-63
2021/12/10 09:35:08;;;;;;;10.25;6.10;;;3.90;86.80;;;;;;5048238;28;20044;-62
2021/12/10 09:37:36;;;;;;;10.43;5.22;;;3.90;86.70;;;;;;5047727;28;20064;-63
2021/12/10 09:40:07;;;;;;;11.35;5.75;;;3.80;86.60;;;;;;5048456;28;20045;-63
2021/12/10 09:42:33;;;;;;;11.85;5.45;;;3.80;86.80;;;;;;5045449;28;20456;-64
2021/12/10 09:44:59;;;;;;;6.07;4.95;;;3.90;86.80;;;;;;5042648;28;20033;-64
2021/12/10 09:47:25;;;;;;;13.43;6.60;;;3.90;86.80;;;;;;5048639;28;20095;-63
2021/12/10 09:49:54;;;;;;;11.18;6.35;;;4.00;86.90;;;;;;5048251;28;20033;-63
2021/12/10 09:52:21;;;;;;;14.02;5.25;;;3.90;86.70;;;;;;5040635;28;20077;-63
2021/12/10 09:54:48;;;;;;;10.00;5.15;;;4.00;86.70;;;;;;5047331;28;20053;-63
2021/12/10 09:57:22;;;;;;;10.13;5.30;;;4.00;86.70;;;;;;5047966;28;20069;-63
2021/12/10 09:59:51;;;;;;;9.15;4.97;;;4.10;86.80;;;;;;5047998;28;20099;-63
2021/12/10 10:02:18;;;;;;;7.90;5.13;;;4.00;86.40;;;;;;5047806;28;20049;-63
2021/12/10 10:04:49;;;;;;;14.48;5.30;;;4.10;86.40;;;;;;5046269;28;20493;-63
2021/12/10 10:07:19;;;;;;;12.88;4.88;;;4.10;86.60;;;;;;5047889;28;20604;-63
2021/12/10 10:09:48;;;;;;;16.27;4.38;;;4.10;86.30;;;;;;5029246;28;20151;-63
2021/12/10 10:12:19;;;;;;;9.80;4.63;;;4.10;86.30;;;;;;5046284;28;20048;-62
2021/12/10 10:14:45;;;;;;;8.23;4.22;;;4.10;86.50;;;;;;5046748;28;20452;-64
2021/12/10 10:17:13;;;;;;;10.40;4.20;;;4.30;87.40;;;;;;5046029;28;20076;-65
2021/12/10 10:19:41;;;;;;;11.65;4.15;;;4.40;86.50;;;;;;5044350;28;20057;-65
2021/12/10 10:22:12;;;;;;;6.90;3.95;;;4.40;86.10;;;;;;5041696;28;20500;-65
2021/12/10 10:24:38;;;;;;;9.65;4.85;;;4.40;85.80;;;;;;5046156;28;20140;-65
2021/12/10 10:27:08;;;;;;;8.63;4.32;;;4.30;85.80;;;;;;5046821;28;20056;-65
2021/12/10 10:29:37;;;;;;;8.85;4.68;;;4.30;85.50;;;;;;5032776;28;20108;-65
2021/12/10 10:32:12;;;;;;;11.80;4.40;;;4.20;85.60;;;;;;5048672;28;20056;-65
2021/12/10 10:34:44;;;;;;;9.27;4.82;;;4.20;85.80;;;;;;5048897;28;20047;-65
2021/12/10 10:37:11;;;;;;;8.57;4.43;;;4.20;85.80;;;;;;5047976;28;20489;-65
2021/12/10 10:39:38;;;;;;;11.15;4.40;;;4.30;85.90;;;;;;5039128;28;20517;-65
2021/12/10 10:42:11;;;;;;;7.70;3.83;;;4.30;85.70;;;;;;5049066;28;20146;-65
2021/12/10 10:44:38;;;;;;;9.85;4.80;;;4.30;85.90;;;;;;5048515;28;20065;-65
2021/12/10 10:47:05;;;;;;;6.22;3.72;;;4.40;85.80;;;;;;5047868;28;20056;-65
2021/12/10 10:49:52;;;;;;;7.18;4.28;;;4.40;85.80;;;;;;5048850;28;20060;-65
2021/12/10 10:52:36;;;;;;;9.48;3.90;;;4.50;85.70;;;;;;5048590;28;20056;-65
2021/12/10 10:55:10;;;;;;;6.20;3.88;;;4.40;85.60;;;;;;5048450;28;20044;-65
2021/12/10 10:57:39;;;;;;;6.90;3.42;;;4.40;85.60;;;;;;5047118;28;20045;-65
2021/12/10 11:00:22;;;;;;;10.98;4.07;;;4.50;85.60;;;;;;5048733;28;20033;-65
2021/12/10 11:02:53;;;;;;;10.25;3.53;;;4.50;85.60;;;;;;5048678;28;20052;-65
2021/12/10 11:05:22;;;;;;;9.98;3.88;;;4.50;85.60;;;;;;5048618;28;20056;-65
2021/12/10 11:07:56;;;;;;;9.63;4.15;;;4.50;85.40;;;;;;5047931;28;20055;-64
2021/12/10 11:10:43;;;;;;;13.35;4.68;;;4.60;85.30;;;;;;5048754;28;20047;-65
2021/12/10 11:13:12;;;;;;;9.45;5.72;;;4.60;85.30;;;;;;5048441;28;20402;-65
2021/12/10 11:15:52;;;;;;;6.03;3.30;;;4.60;85.40;;;;;;5046193;28;20481;-64
2021/12/10 11:18:18;;;;;;;12.00;4.15;;;4.70;85.30;;;;;;5029674;28;20045;-64
2021/12/10 11:20:46;;;;;;;11.75;3.92;;;4.70;85.30;;;;;;5047269;28;20041;-64
2021/12/10 11:23:13;;;;;;;11.43;4.32;;;4.80;85.30;;;;;;5048265;28;20146;-65
2021/12/10 11:25:47;;;;;;;8.05;3.92;;;4.80;85.20;;;;;;5047532;28;20175;-65
2021/12/10 11:28:18;;;;;;;9.55;4.18;;;4.90;85.20;;;;;;5047591;28;20037;-65
2021/12/10 11:31:05;;;;;;;12.55;4.82;;;4.90;85.10;;;;;;5046718;28;20536;-65
2021/12/10 11:33:39;;;;;;;6.28;3.38;;;4.90;85.00;;;;;;5038080;28;20044;-65
2021/12/10 11:36:09;;;;;;;6.20;3.58;;;4.90;85.10;;;;;;5055819;28;20052;-65
2021/12/10 11:38:36;;;;;;;6.45;3.28;;;4.90;85.00;;;;;;5046615;28;20045;-65
2021/12/10 11:41:16;;;;;;;10.48;4.18;;;4.90;84.70;;;;;;5050410;28;20048;-65
2021/12/10 11:43:56;;;;;;;9.20;3.70;;;5.00;84.70;;;;;;5051511;28;20049;-65
2021/12/10 11:47:12;;;;;;;10.40;3.67;;;5.10;84.70;;;;;;5051054;28;20056;-64
2021/12/10 11:49:39;;;;;;;7.00;3.30;;;5.10;84.50;;;;;;5041363;28;20472;-65
2021/12/10 11:52:16;;;;;;;7.68;3.78;;;5.10;84.50;;;;;;5048145;28;20055;-65
2021/12/10 11:54:59;;;;;;;8.65;3.50;;;5.20;84.50;;;;;;5047490;28;20049;-65
2021/12/10 11:57:28;;;;;;;10.43;3.83;;;5.20;84.50;;;;;;5050226;28;20044;-65
2021/12/10 11:59:59;;;;;;;6.95;3.25;;;5.20;84.40;;;;;;5050199;28;20037;-65
2021/12/10 12:02:30;;;;;;;7.80;2.83;;;5.30;84.20;;;;;;5047931;28;20080;-65
2021/12/10 12:04:57;;;;;;;8.25;4.63;;;5.30;84.20;;;;;;5050917;28;20124;-65
2021/12/10 12:07:49;;;;;;;9.38;3.17;;;5.30;84.10;;;;;;5051103;28;20410;-65
2021/12/10 12:10:26;;;;;;;;;;;5.30;83.80;;;;;;5050032;28;20040;-66
2021/12/10 12:12:55;;;;;;;6.68;3.03;;;5.30;83.60;;;;;;5031561;28;19928;-65
2021/12/10 12:15:24;;;;;;;6.57;3.17;;;5.30;84.10;;;;;;5031447;28;20079;-65
2021/12/10 12:17:53;;;;;;;7.38;3.40;;;5.40;84.00;;;;;;5031073;28;20045;-65
2021/12/10 12:20:28;;;;;;;5.18;3.10;;;5.40;83.90;;;;;;5054681;28;20048;-65
2021/12/10 12:25:50;;;;;;;9.57;3.45;;;5.40;83.70;;;;;;5050026;28;20041;-65
2021/12/10 12:28:18;;;;;;;4.82;2.67;;;5.50;83.80;;;;;;5050642;28;20047;-66
2021/12/10 12:31:11;;;;;;;6.25;3.38;;;5.40;83.30;;;;;;5050537;28;20041;-66
2021/12/10 12:34:14;;;;;;;12.23;3.13;;;5.50;83.60;;;;;;5050411;28;20045;-65
2021/12/10 12:36:52;;;;;;;6.25;2.85;;;5.60;83.30;;;;;;5051056;28;20045;-65
2021/12/10 12:39:29;;;;;;;10.68;3.22;;;5.60;83.40;;;;;;5050542;28;20049;-66
2021/12/10 12:41:55;;;;;;;12.60;2.95;;;5.60;83.40;;;;;;5050574;28;20048;-66
2021/12/10 12:44:27;;;;;;;6.63;3.53;;;5.60;83.20;;;;;;5050490;28;20052;-65
2021/12/10 12:47:17;;;;;;;5.70;3.25;;;5.60;83.30;;;;;;5049875;28;20052;-66
2021/12/10 12:49:49;;;;;;;11.68;3.83;;;5.60;83.00;;;;;;5043493;28;20425;-66
2021/12/10 12:52:24;;;;;;;10.45;3.30;;;5.70;83.30;;;;;;5046250;28;20087;-66
2021/12/10 12:55:15;;;;;;;11.68;3.75;;;5.70;83.10;;;;;;5050598;28;20101;-65
2021/12/10 12:57:55;;;;;;;10.52;3.72;;;5.70;82.90;;;;;;5049886;28;20041;-66
2021/12/10 13:00:33;;;;;;;7.70;3.15;;;5.70;83.00;;;;;;5049257;28;20603;-66
2021/12/10 13:03:04;;;;;;;13.38;3.65;;;5.70;83.00;;;;;;5047455;28;20043;-65
2021/12/10 13:06:05;;;;;;;5.90;3.17;;;5.70;83.00;;;;;;5049169;28;20068;-65
2021/12/10 13:08:34;;;;;;;6.90;3.15;;;5.70;82.90;;;;;;5048728;28;20056;-66
2021/12/10 13:11:19;;;;;;;6.40;2.85;;;5.70;82.80;;;;;;5047658;28;20041;-65
2021/12/10 13:13:52;;;;;;;4.60;2.85;;;5.70;82.70;;;;;;5049535;28;20045;-62